createdAt,value
2017-11-04T00:01:24.409Z,31.45
2017-11-04T00:03:51.965Z,37.55
2017-11-04T00:06:19.500Z,30.02
2017-11-04T00:08:47.065Z,31.60
2017-11-04T00:11:14.593Z,34.13
2017-11-04T00:13:42.961Z,33.22
2017-11-04T00:16:11.266Z,31.15
2017-11-04T00:18:38.829Z,32.45
2017-11-04T00:21:06.691Z,31.75
2017-11-04T00:23:36.140Z,27.87
2017-11-04T00:26:03.693Z,34.53
2017-11-04T00:28:31.249Z,26.90
2017-11-04T00:30:58.780Z,31.85
2017-11-04T00:33:27.368Z,28.35
2017-11-04T00:35:54.940Z,22.85
2017-11-04T00:38:23.265Z,29.95
2017-11-04T00:40:51.493Z,35.25
2017-11-04T00:43:19.794Z,34.17
2017-11-04T00:45:47.810Z,28.45
2017-11-04T00:48:15.341Z,32.40
2017-11-04T00:50:42.888Z,28.92
2017-11-04T00:53:10.420Z,26.85
2017-11-04T00:55:38.746Z,33.83
2017-11-04T00:58:06.290Z,29.75
2017-11-04T01:00:33.872Z,27.95
2017-11-04T01:03:01.434Z,30.60
2017-11-04T01:05:28.976Z,32.70
2017-11-04T01:07:56.505Z,28.48
2017-11-04T01:10:24.028Z,32.03
2017-11-04T01:12:51.586Z,30.48
2017-11-04T01:15:19.116Z,30.08
2017-11-04T01:17:48.300Z,30.42
2017-11-04T01:20:16.712Z,31.67
2017-11-04T01:22:44.283Z,32.97
2017-11-04T01:25:11.830Z,39.33
2017-11-04T01:27:39.379Z,26.80
2017-11-04T01:30:06.931Z,26.20
2017-11-04T01:32:34.462Z,36.50
2017-11-04T01:35:02.797Z,32.47
2017-11-04T01:37:30.356Z,30.35
2017-11-04T01:39:57.960Z,29.33
2017-11-04T01:42:25.490Z,33.08
2017-11-04T01:44:53.060Z,35.28
2017-11-04T01:47:20.601Z,28.60
2017-11-04T01:49:48.124Z,33.10
2017-11-04T01:52:16.442Z,28.77
2017-11-04T01:54:43.980Z,29.30
2017-11-04T01:57:11.717Z,27.90
2017-11-04T01:59:40.019Z,38.47
2017-11-04T02:02:07.569Z,44.88
2017-11-04T02:04:35.105Z,61.72
2017-11-04T02:07:03.451Z,51.85
2017-11-04T02:09:30.997Z,70.68
2017-11-04T02:11:58.560Z,79.55
2017-11-04T02:14:26.116Z,64.30
2017-11-04T02:16:53.665Z,61.80
2017-11-04T02:19:21.245Z,53.70
2017-11-04T02:21:48.811Z,53.65
2017-11-04T02:24:16.347Z,54.50
2017-11-04T02:26:43.901Z,53.35
2017-11-04T02:29:11.425Z,58.17
2017-11-04T02:31:39.755Z,53.33
2017-11-04T02:34:07.322Z,50.72
2017-11-04T02:36:34.854Z,50.15
2017-11-04T02:39:02.406Z,52.50
2017-11-04T02:41:29.953Z,48.65
2017-11-04T02:43:57.526Z,47.55
2017-11-04T02:46:25.078Z,43.75
2017-11-04T02:48:52.634Z,42.60
2017-11-04T02:51:20.186Z,41.95
2017-11-04T02:53:48.498Z,45.97
2017-11-04T02:56:16.052Z,58.05
2017-11-04T02:58:43.639Z,46.20
2017-11-04T03:01:11.182Z,41.88
2017-11-04T03:03:38.732Z,44.35
2017-11-04T03:06:06.315Z,39.03
2017-11-04T03:08:34.685Z,44.65
2017-11-04T03:11:02.997Z,52.50
2017-11-04T03:13:30.528Z,38.22
2017-11-04T03:15:58.840Z,44.45
2017-11-04T03:18:26.372Z,38.88
2017-11-04T03:20:54.705Z,40.15
2017-11-04T03:23:22.239Z,40.35
2017-11-04T03:25:49.785Z,32.45
2017-11-04T03:28:17.322Z,32.25
2017-11-04T03:30:45.653Z,33.25
2017-11-04T03:33:13.177Z,26.75
2017-11-04T03:35:41.474Z,33.53
2017-11-04T03:38:09.038Z,29.00
2017-11-04T03:40:36.581Z,32.97
2017-11-04T03:43:04.140Z,42.85
2017-11-04T03:45:31.671Z,39.25
2017-11-04T03:47:59.988Z,40.50
2017-11-04T03:50:27.520Z,40.28
2017-11-04T03:52:55.851Z,39.83
2017-11-04T03:55:23.394Z,35.92
2017-11-04T03:57:50.957Z,41.35
2017-11-04T04:00:18.542Z,35.72
2017-11-04T04:02:46.081Z,35.42
2017-11-04T04:05:13.633Z,37.85
2017-11-04T04:07:41.169Z,41.83
2017-11-04T04:10:08.741Z,37.78
2017-11-04T04:12:36.308Z,34.90
2017-11-04T04:15:03.857Z,40.40
2017-11-04T04:17:31.388Z,40.20
2017-11-04T04:19:59.730Z,34.28
2017-11-04T04:22:27.291Z,38.13
2017-11-04T04:24:54.836Z,32.40
2017-11-04T04:27:22.376Z,33.30
2017-11-04T04:29:49.930Z,28.33
2017-11-04T04:32:17.458Z,31.17
2017-11-04T04:34:45.781Z,29.80
2017-11-04T04:37:13.314Z,34.50
2017-11-04T04:39:40.997Z,35.40
2017-11-04T04:42:08.557Z,30.95
2017-11-04T04:44:36.089Z,35.60
2017-11-04T04:47:04.416Z,37.63
2017-11-04T04:49:31.952Z,35.42
2017-11-04T04:51:59.477Z,35.95
2017-11-04T04:54:27.783Z,34.63
2017-11-04T04:56:55.316Z,33.53
2017-11-04T04:59:23.626Z,34.55
2017-11-04T05:01:51.157Z,36.47
2017-11-04T05:04:19.488Z,36.53
2017-11-04T05:06:47.028Z,34.70
2017-11-04T05:09:14.576Z,32.95
2017-11-04T05:11:42.101Z,34.22
2017-11-04T05:14:10.410Z,35.20
2017-11-04T05:16:37.951Z,31.87
2017-11-04T05:19:05.507Z,37.53
2017-11-04T05:21:33.810Z,34.83
2017-11-04T05:24:01.367Z,39.25
2017-11-04T05:26:28.901Z,36.25
2017-11-04T05:28:57.276Z,36.88
2017-11-04T05:31:25.609Z,34.75
2017-11-04T05:33:53.150Z,40.10
2017-11-04T05:36:20.706Z,35.67
2017-11-04T05:38:48.246Z,37.45
2017-11-04T05:41:15.802Z,37.40
2017-11-04T05:43:44.121Z,40.33
2017-11-04T05:46:11.658Z,36.42
2017-11-04T05:48:39.214Z,42.33
2017-11-04T05:51:06.762Z,42.80
2017-11-04T05:53:36.349Z,37.83
2017-11-04T05:56:06.848Z,35.03
2017-11-04T05:58:34.402Z,36.53
2017-11-04T06:01:01.965Z,33.53
2017-11-04T06:03:29.498Z,36.20
2017-11-04T06:05:57.044Z,36.55
2017-11-04T06:08:24.592Z,42.78
2017-11-04T06:10:52.132Z,37.70
2017-11-04T06:13:20.460Z,36.22
2017-11-04T06:15:48.122Z,40.78
2017-11-04T06:18:15.681Z,36.10
2017-11-04T06:20:43.242Z,36.53
2017-11-04T06:23:10.797Z,42.42
2017-11-04T06:25:38.363Z,37.60
2017-11-04T06:28:05.924Z,36.58
2017-11-04T06:30:33.587Z,43.00
2017-11-04T06:33:01.248Z,38.80
2017-11-04T06:35:28.822Z,40.25
2017-11-04T06:37:56.393Z,43.08
2017-11-04T06:40:23.948Z,32.03
2017-11-04T06:42:51.498Z,38.38
2017-11-04T06:45:19.052Z,37.40
2017-11-04T06:47:46.618Z,33.95
2017-11-04T06:50:14.170Z,34.53
2017-11-04T06:52:41.714Z,32.55
2017-11-04T06:55:09.242Z,41.22
2017-11-04T06:57:37.559Z,37.78
2017-11-04T07:00:05.097Z,36.75
2017-11-04T07:02:32.648Z,32.65
2017-11-04T07:05:00.957Z,38.63
2017-11-04T07:07:28.485Z,39.13
2017-11-04T07:09:56.795Z,38.22
2017-11-04T07:12:24.324Z,34.63
2017-11-04T07:14:51.894Z,34.30
2017-11-04T07:17:19.417Z,34.05
2017-11-04T07:19:47.013Z,30.85
2017-11-04T07:22:14.545Z,36.20
2017-11-04T07:24:42.098Z,30.08
2017-11-04T07:27:09.641Z,34.47
2017-11-04T07:29:38.126Z,31.60
2017-11-04T07:32:06.425Z,35.42
2017-11-04T07:34:33.986Z,28.85
2017-11-04T07:37:01.571Z,31.40
2017-11-04T07:39:29.101Z,31.40
2017-11-04T07:41:59.498Z,35.88
2017-11-04T07:44:27.027Z,32.85
2017-11-04T07:46:54.635Z,33.28
2017-11-04T07:49:22.182Z,30.75
2017-11-04T07:51:50.494Z,28.50
2017-11-04T07:54:18.031Z,31.17
2017-11-04T07:56:46.354Z,30.30
2017-11-04T07:59:13.911Z,34.17
2017-11-04T08:01:41.560Z,30.85
2017-11-04T08:04:09.084Z,31.23
2017-11-04T08:06:37.396Z,32.67
2017-11-04T08:09:04.929Z,35.88
2017-11-04T08:11:33.252Z,30.17
2017-11-04T08:14:00.776Z,27.35
2017-11-04T08:16:28.302Z,26.80
2017-11-04T08:18:56.657Z,26.20
2017-11-04T08:21:24.214Z,25.30
2017-11-04T08:23:51.839Z,23.35
2017-11-04T08:26:19.501Z,25.70
2017-11-04T08:28:47.053Z,24.20
2017-11-04T08:31:14.612Z,24.00
2017-11-04T08:33:42.173Z,24.08
2017-11-04T08:36:10.055Z,21.52
2017-11-04T08:38:37.628Z,21.33
2017-11-04T08:41:06.165Z,22.55
2017-11-04T08:43:34.489Z,17.48
2017-11-04T08:46:02.058Z,20.70
2017-11-04T08:48:29.620Z,18.17
2017-11-04T08:50:59.048Z,14.97
2017-11-04T08:53:26.631Z,15.43
2017-11-04T08:55:54.181Z,18.50
2017-11-04T08:58:22.520Z,20.15
2017-11-04T09:00:50.176Z,19.08
2017-11-04T09:03:17.723Z,18.48
2017-11-04T09:05:45.284Z,21.20
2017-11-04T09:08:12.861Z,17.17
2017-11-04T09:10:40.410Z,20.20
2017-11-04T09:13:07.949Z,15.63
2017-11-04T09:15:35.512Z,20.90
2017-11-04T09:18:03.180Z,16.30
2017-11-04T09:20:30.721Z,16.90
2017-11-04T09:22:58.801Z,18.87
2017-11-04T09:25:26.362Z,21.50
2017-11-04T09:27:53.908Z,14.83
2017-11-04T09:30:21.491Z,17.02
2017-11-04T09:32:49.034Z,17.03
2017-11-04T09:35:16.633Z,16.47
2017-11-04T09:37:44.978Z,16.70
2017-11-04T09:40:12.549Z,13.97
2017-11-04T09:42:40.150Z,17.50
2017-11-04T09:45:07.715Z,16.90
2017-11-04T09:47:35.294Z,14.97
2017-11-04T09:50:02.886Z,18.27
2017-11-04T09:52:32.408Z,17.07
2017-11-04T09:54:59.941Z,18.53
2017-11-04T09:57:27.646Z,17.60
2017-11-04T09:59:55.251Z,18.03
2017-11-04T10:02:22.837Z,17.10
2017-11-04T10:04:50.408Z,16.07
2017-11-04T10:07:17.958Z,18.10
2017-11-04T10:09:45.539Z,16.17
2017-11-04T10:12:13.140Z,17.53
2017-11-04T10:14:40.737Z,16.57
2017-11-04T10:17:09.059Z,18.93
2017-11-04T10:19:36.667Z,17.60
2017-11-04T10:22:04.966Z,13.73
2017-11-04T10:24:32.525Z,13.57
2017-11-04T10:27:00.057Z,13.77
2017-11-04T10:29:28.379Z,13.90
2017-11-04T10:31:55.976Z,14.43
2017-11-04T10:34:23.547Z,11.97
2017-11-04T10:36:51.871Z,12.80
2017-11-04T10:39:19.456Z,13.20
2017-11-04T10:41:46.997Z,12.13
2017-11-04T10:44:14.597Z,13.93
2017-11-04T10:46:42.132Z,13.80
2017-11-04T10:49:09.884Z,11.87
2017-11-04T10:51:37.512Z,13.00
2017-11-04T10:54:05.050Z,13.57
2017-11-04T10:56:33.525Z,13.17
2017-11-04T10:59:01.221Z,18.17
2017-11-04T11:01:28.797Z,13.47
2017-11-04T11:03:56.349Z,10.30
2017-11-04T11:06:23.908Z,11.80
2017-11-04T11:08:51.461Z,11.77
2017-11-04T11:11:19.017Z,11.70
2017-11-04T11:13:46.585Z,11.90
2017-11-04T11:16:14.121Z,15.03
2017-11-04T11:18:41.716Z,11.67
2017-11-04T11:21:09.264Z,13.27
2017-11-04T11:23:36.817Z,10.60
2017-11-04T11:26:04.347Z,11.07
2017-11-04T11:28:32.668Z,11.03
2017-11-04T11:31:00.213Z,14.03
2017-11-04T11:33:27.773Z,12.43
2017-11-04T11:35:55.330Z,10.70
2017-11-04T11:38:22.897Z,11.30
2017-11-04T11:40:50.433Z,10.87
2017-11-04T11:43:17.973Z,12.60
2017-11-04T11:45:46.305Z,12.80
2017-11-04T11:48:13.865Z,12.20
2017-11-04T11:50:41.434Z,12.40
2017-11-04T11:53:08.992Z,10.63
2017-11-04T11:55:36.565Z,10.37
2017-11-04T11:58:04.124Z,11.57
2017-11-04T12:00:31.682Z,10.13
2017-11-04T12:02:59.231Z,10.03
2017-11-04T12:05:26.829Z,12.73
2017-11-04T12:07:55.132Z,12.13
2017-11-04T12:10:22.692Z,11.27
2017-11-04T12:12:50.249Z,10.13
2017-11-04T12:15:17.781Z,11.50
2017-11-04T12:17:45.347Z,11.63
2017-11-04T12:20:13.650Z,10.10
2017-11-04T12:22:41.210Z,9.60
2017-11-04T12:25:08.763Z,10.70
2017-11-04T12:27:36.348Z,18.30
2017-11-04T12:30:04.013Z,11.03
2017-11-04T12:32:31.673Z,11.83
2017-11-04T12:34:59.350Z,11.17
2017-11-04T12:37:27.099Z,10.77
2017-11-04T12:39:54.737Z,12.03
2017-11-04T12:42:22.287Z,10.20
2017-11-04T12:44:50.613Z,10.00
2017-11-04T12:47:18.148Z,9.97
2017-11-04T12:49:45.693Z,10.30
2017-11-04T12:52:13.279Z,10.03
2017-11-04T12:54:40.816Z,11.90
2017-11-04T12:57:08.395Z,10.80
2017-11-04T12:59:35.930Z,8.07
2017-11-04T13:02:04.249Z,9.30
2017-11-04T13:04:31.794Z,8.90
2017-11-04T13:06:59.363Z,9.23
2017-11-04T13:09:27.017Z,6.33
2017-11-04T13:11:54.544Z,6.70
2017-11-04T13:14:22.864Z,5.90
2017-11-04T13:16:50.407Z,6.10
2017-11-04T13:19:18.075Z,5.30
2017-11-04T13:21:45.638Z,5.80
2017-11-04T13:24:13.213Z,7.63
2017-11-04T13:26:41.564Z,5.23
2017-11-04T13:29:10.619Z,6.17
2017-11-04T13:31:38.222Z,5.70
2017-11-04T13:34:05.775Z,5.63
2017-11-04T13:36:34.088Z,9.13
2017-11-04T13:39:02.427Z,4.97
2017-11-04T13:41:29.977Z,4.77
2017-11-04T13:43:58.276Z,5.33
2017-11-04T13:46:25.947Z,4.60
2017-11-04T13:48:53.489Z,4.50
2017-11-04T13:51:21.058Z,4.07
2017-11-04T13:53:48.582Z,4.20
2017-11-04T13:56:16.901Z,5.00
2017-11-04T13:58:44.445Z,4.70
2017-11-04T14:01:12.023Z,4.70
2017-11-04T14:03:39.574Z,7.50
2017-11-04T14:06:07.893Z,4.17
2017-11-04T14:08:35.442Z,4.60
2017-11-04T14:11:02.995Z,5.87
2017-11-04T14:13:30.537Z,5.73
2017-11-04T14:15:58.833Z,5.17
2017-11-04T14:18:26.389Z,4.50
2017-11-04T14:20:53.916Z,5.10
2017-11-04T14:23:21.506Z,4.73
2017-11-04T14:25:49.814Z,7.67
2017-11-04T14:28:17.354Z,6.87
2017-11-04T14:30:45.681Z,4.07
2017-11-04T14:33:13.978Z,6.93
2017-11-04T14:35:41.525Z,7.67
2017-11-04T14:38:09.077Z,4.37
2017-11-04T14:40:37.404Z,4.33
2017-11-04T14:43:05.029Z,5.17
2017-11-04T14:45:32.593Z,4.30
2017-11-04T14:48:00.172Z,7.17
2017-11-04T14:50:27.704Z,4.10
2017-11-04T14:52:56.034Z,4.53
2017-11-04T14:55:23.675Z,5.00
2017-11-04T14:57:51.244Z,4.83
2017-11-04T15:00:18.784Z,4.40
2017-11-04T15:02:46.353Z,4.40
2017-11-04T15:05:13.901Z,4.70
2017-11-04T15:07:41.465Z,4.17
2017-11-04T15:10:09.013Z,4.00
2017-11-04T15:12:36.567Z,6.40
2017-11-04T15:15:04.897Z,7.83
2017-11-04T15:17:32.446Z,4.33
2017-11-04T15:20:00.090Z,4.63
2017-11-04T15:22:27.629Z,4.40
2017-11-04T15:24:55.390Z,4.13
2017-11-04T15:27:22.961Z,5.17
2017-11-04T15:29:50.501Z,4.50
2017-11-04T15:32:18.063Z,6.87
2017-11-04T15:34:45.612Z,6.07
2017-11-04T15:37:13.949Z,4.57
2017-11-04T15:39:41.506Z,3.97
2017-11-04T15:42:09.064Z,6.43
2017-11-04T15:44:36.604Z,5.20
2017-11-04T15:47:04.169Z,5.20
2017-11-04T15:49:31.762Z,5.87
2017-11-04T15:52:00.078Z,5.47
2017-11-04T15:54:27.670Z,5.50
2017-11-04T15:56:55.235Z,4.77
2017-11-04T15:59:22.783Z,5.60
2017-11-04T16:01:50.334Z,6.00
2017-11-04T16:04:17.865Z,4.80
2017-11-04T16:06:45.426Z,5.20
2017-11-04T16:09:12.974Z,7.17
2017-11-04T16:11:40.556Z,5.87
2017-11-04T16:14:08.098Z,5.93
2017-11-04T16:16:35.649Z,4.70
2017-11-04T16:19:03.193Z,6.60
2017-11-04T16:21:31.518Z,7.80
2017-11-04T16:23:59.070Z,6.12
2017-11-04T16:26:26.652Z,6.95
2017-11-04T16:28:54.221Z,5.20
2017-11-04T16:31:21.768Z,6.57
2017-11-04T16:33:49.340Z,7.32
2017-11-04T16:36:16.917Z,10.25
2017-11-04T16:38:44.482Z,6.43
2017-11-04T16:41:12.025Z,8.48
2017-11-04T16:43:39.598Z,9.05
2017-11-04T16:46:07.922Z,7.15
2017-11-04T16:48:35.494Z,7.50
2017-11-04T16:51:03.081Z,7.68
2017-11-04T16:53:30.625Z,6.77
2017-11-04T16:55:58.188Z,7.15
2017-11-04T16:58:25.755Z,7.15
2017-11-04T17:00:53.305Z,8.43
2017-11-04T17:03:20.869Z,10.20
2017-11-04T17:05:48.433Z,7.40
2017-11-04T17:08:15.997Z,8.27
2017-11-04T17:10:43.534Z,10.30
2017-11-04T17:13:11.081Z,8.35
2017-11-04T17:15:38.656Z,9.25
2017-11-04T17:18:06.202Z,10.25
2017-11-04T17:20:33.760Z,9.30
2017-11-04T17:23:01.322Z,9.43
2017-11-04T17:25:28.874Z,8.43
2017-11-04T17:27:56.426Z,9.60
2017-11-04T17:30:23.993Z,9.20
2017-11-04T17:32:51.552Z,8.70
2017-11-04T17:35:19.121Z,9.00
2017-11-04T17:37:46.691Z,9.20
2017-11-04T17:40:14.247Z,9.32
2017-11-04T17:42:41.810Z,10.35
2017-11-04T17:45:09.349Z,9.10
2017-11-04T17:47:36.922Z,11.15
2017-11-04T17:50:04.460Z,8.85
2017-11-04T17:52:32.029Z,9.18
2017-11-04T17:54:59.566Z,11.00
2017-11-04T17:57:27.989Z,9.82
2017-11-04T17:59:55.548Z,10.77
2017-11-04T18:02:23.110Z,10.52
2017-11-04T18:04:50.672Z,13.55
2017-11-04T18:07:18.222Z,13.32
2017-11-04T18:09:45.763Z,9.65
2017-11-04T18:12:13.298Z,10.23
2017-11-04T18:14:41.624Z,11.52
2017-11-04T18:17:09.160Z,13.38
2017-11-04T18:19:36.751Z,9.57
2017-11-04T18:22:04.290Z,14.07
2017-11-04T18:24:31.849Z,9.18
2017-11-04T18:26:59.413Z,9.27
2017-11-04T18:29:26.979Z,9.40
2017-11-04T18:31:54.526Z,11.52
2017-11-04T18:34:22.215Z,12.25
2017-11-04T18:36:49.775Z,12.43
2017-11-04T18:39:18.290Z,36.20
2017-11-04T18:41:45.859Z,13.75
2017-11-04T18:44:13.415Z,12.32
2017-11-04T18:46:40.988Z,13.10
2017-11-04T18:49:09.292Z,12.82
2017-11-04T18:51:36.868Z,11.77
2017-11-04T18:54:04.798Z,13.27
2017-11-04T18:56:33.252Z,11.12
2017-11-04T18:59:01.104Z,15.45
2017-11-04T19:01:28.679Z,14.38
2017-11-04T19:03:56.275Z,13.10
2017-11-04T19:06:23.821Z,12.90
2017-11-04T19:08:52.182Z,14.48
2017-11-04T19:11:20.537Z,12.68
2017-11-04T19:13:48.079Z,15.85
2017-11-04T19:16:15.743Z,15.10
2017-11-04T19:18:43.297Z,13.38
2017-11-04T19:21:10.889Z,13.43
2017-11-04T19:23:39.228Z,13.00
2017-11-04T19:26:06.788Z,14.30
2017-11-04T19:28:34.379Z,13.10
2017-11-04T19:31:02.685Z,17.05
2017-11-04T19:33:30.249Z,13.80
2017-11-04T19:35:57.802Z,15.35
2017-11-04T19:38:25.365Z,14.23
2017-11-04T19:40:52.929Z,13.30
2017-11-04T19:43:20.502Z,14.45
2017-11-04T19:45:48.056Z,13.77
2017-11-04T19:48:15.622Z,13.95
2017-11-04T19:50:43.195Z,15.77
2017-11-04T19:53:10.762Z,18.55
2017-11-04T19:55:38.629Z,22.85
2017-11-04T19:58:06.197Z,24.15
2017-11-04T20:00:33.767Z,24.63
2017-11-04T20:03:01.321Z,22.85
2017-11-04T20:05:28.877Z,21.58
2017-11-04T20:07:56.416Z,22.17
2017-11-04T20:10:23.979Z,17.10
2017-11-04T20:12:51.522Z,17.98
2017-11-04T20:15:19.096Z,17.80
2017-11-04T20:17:46.633Z,18.67
2017-11-04T20:20:14.204Z,18.62
2017-11-04T20:22:41.741Z,15.45
2017-11-04T20:25:09.301Z,19.05
2017-11-04T20:27:36.937Z,14.50
2017-11-04T20:30:04.485Z,17.23
2017-11-04T20:32:32.159Z,19.15
2017-11-04T20:34:59.721Z,21.50
2017-11-04T20:37:27.285Z,21.30
2017-11-04T20:39:54.818Z,18.27
2017-11-04T20:42:22.381Z,18.20
2017-11-04T20:44:49.917Z,18.80
2017-11-04T20:47:18.237Z,21.45
2017-11-04T20:49:45.796Z,17.58
2017-11-04T20:52:13.350Z,19.00
2017-11-04T20:54:40.906Z,16.37
2017-11-04T20:57:08.459Z,16.25
2017-11-04T20:59:35.994Z,15.50
2017-11-04T21:02:04.293Z,19.67
2017-11-04T21:04:31.859Z,19.77
2017-11-04T21:06:59.415Z,19.10
2017-11-04T21:09:26.981Z,16.77
2017-11-04T21:11:54.540Z,19.90
2017-11-04T21:14:22.094Z,21.85
2017-11-04T21:16:49.689Z,21.15
2017-11-04T21:19:17.250Z,18.12
2017-11-04T21:21:44.774Z,20.10
2017-11-04T21:24:12.351Z,22.23
2017-11-04T21:26:39.934Z,20.52
2017-11-04T21:29:07.499Z,19.87
2017-11-04T21:31:35.052Z,21.87
2017-11-04T21:34:02.629Z,20.45
2017-11-04T21:36:30.193Z,20.08
2017-11-04T21:38:57.762Z,24.20
2017-11-04T21:41:25.313Z,21.35
2017-11-04T21:43:52.912Z,19.23
2017-11-04T21:46:21.600Z,25.33
2017-11-04T21:48:49.176Z,21.55
2017-11-04T21:51:16.745Z,20.62
2017-11-04T21:53:44.281Z,26.37
2017-11-04T21:56:12.720Z,20.33
2017-11-04T21:58:40.257Z,17.58
2017-11-04T22:01:07.993Z,21.25
2017-11-04T22:03:35.556Z,17.75
2017-11-04T22:06:03.112Z,17.50
2017-11-04T22:08:30.675Z,18.40
2017-11-04T22:10:58.246Z,21.87
2017-11-04T22:13:26.574Z,23.08
2017-11-04T22:15:54.131Z,23.02
2017-11-04T22:18:21.766Z,17.37
2017-11-04T22:20:50.089Z,19.98
2017-11-04T22:23:17.689Z,19.65
2017-11-04T22:25:45.256Z,21.05
2017-11-04T22:28:12.855Z,19.50
2017-11-04T22:30:40.398Z,21.75
2017-11-04T22:33:08.793Z,19.58
2017-11-04T22:35:36.332Z,20.55
2017-11-04T22:38:03.914Z,20.02
2017-11-04T22:40:31.470Z,18.80
2017-11-04T22:42:59.076Z,19.27
2017-11-04T22:45:26.612Z,18.42
2017-11-04T22:47:54.149Z,19.90
2017-11-04T22:50:21.704Z,15.95
2017-11-04T22:52:50.009Z,16.08
2017-11-04T22:55:17.670Z,19.90
2017-11-04T22:57:45.214Z,16.00
2017-11-04T23:00:12.777Z,17.65
2017-11-04T23:02:40.556Z,17.45
2017-11-04T23:05:08.114Z,18.62
2017-11-04T23:07:36.416Z,16.83
2017-11-04T23:10:04.070Z,15.07
2017-11-04T23:12:32.418Z,16.87
2017-11-04T23:14:59.965Z,16.30
2017-11-04T23:17:27.523Z,21.77
2017-11-04T23:19:55.068Z,15.73
2017-11-04T23:22:22.751Z,16.90
2017-11-04T23:24:50.242Z,17.08
2017-11-04T23:27:17.759Z,17.37
2017-11-04T23:29:45.251Z,17.35
2017-11-04T23:32:12.728Z,15.13
2017-11-04T23:34:41.051Z,16.73
2017-11-04T23:37:09.317Z,16.77
2017-11-04T23:39:36.832Z,15.18
2017-11-04T23:42:04.310Z,21.83
2017-11-04T23:44:31.812Z,16.95
2017-11-04T23:47:00.083Z,14.43
2017-11-04T23:49:28.349Z,19.65
2017-11-04T23:51:56.589Z,18.00
2017-11-04T23:54:24.117Z,19.12
2017-11-04T23:56:51.660Z,19.00
2017-11-04T23:59:19.229Z,13.07
